createdAt,value
2017-07-15T08:33:30.665Z,23.49
2017-07-15T08:36:13.903Z,23.57
2017-07-15T08:39:30.326Z,23.55
2017-07-15T08:42:17.948Z,23.52
2017-07-15T08:45:12.620Z,23.49
2017-07-15T08:48:07.428Z,23.45
2017-07-15T08:51:02.446Z,23.45
2017-07-15T08:53:57.568Z,23.49
2017-07-15T08:56:52.720Z,23.54
2017-07-15T08:59:47.877Z,23.63
2017-07-15T09:02:42.901Z,23.76
2017-07-15T09:05:37.797Z,23.88
2017-07-15T09:08:32.883Z,24.00
2017-07-15T09:11:28.017Z,24.08
2017-07-15T09:14:23.144Z,24.16
2017-07-15T09:17:18.185Z,24.22
2017-07-15T09:20:13.466Z,24.34
2017-07-15T09:23:08.706Z,24.49
2017-07-15T09:26:04.074Z,24.67
2017-07-15T09:28:59.479Z,24.87
2017-07-15T09:31:54.895Z,25.12
2017-07-15T09:34:50.092Z,25.29
2017-07-15T09:37:45.232Z,25.34
2017-07-15T09:43:35.249Z,25.27
2017-07-15T09:46:30.308Z,25.15
2017-07-15T09:49:25.214Z,24.99
2017-07-15T09:52:20.330Z,24.93
2017-07-15T09:55:15.711Z,25.02
2017-07-15T09:58:11.053Z,25.20
2017-07-15T10:01:06.511Z,25.46
2017-07-15T10:04:01.870Z,25.69
2017-07-15T10:06:57.018Z,25.79
2017-07-15T10:09:51.992Z,25.82
2017-07-15T10:12:47.016Z,25.76
2017-07-15T10:15:42.042Z,25.65
2017-07-15T10:18:36.973Z,25.51
2017-07-15T10:21:32.110Z,25.59
2017-07-15T10:24:27.565Z,25.89
2017-07-15T10:27:23.106Z,26.28
2017-07-15T10:30:18.760Z,26.71
2017-07-15T10:33:14.404Z,27.18
2017-07-15T10:36:09.765Z,27.45
2017-07-15T10:39:04.883Z,27.53
2017-07-15T10:42:00.033Z,27.47
2017-07-15T10:44:54.977Z,27.27
2017-07-15T10:47:50.078Z,27.04
2017-07-15T10:50:45.218Z,26.87
2017-07-15T10:53:40.370Z,26.71
2017-07-15T10:56:57.923Z,26.55
2017-07-15T10:59:46.183Z,26.44
2017-07-15T11:05:08.003Z,26.29
2017-07-15T11:07:52.299Z,26.30
2017-07-15T11:10:46.724Z,26.23
2017-07-15T11:13:41.619Z,26.10
2017-07-15T11:16:59.445Z,25.93
2017-07-15T11:20:44.435Z,25.78
2017-07-15T11:24:15.779Z,25.68
2017-07-15T11:27:02.179Z,25.58
2017-07-15T11:29:57.173Z,25.40
2017-07-15T11:32:52.326Z,25.16
2017-07-15T11:35:58.844Z,24.92
2017-07-15T11:39:00.623Z,24.76
2017-07-15T11:41:51.171Z,24.61
2017-07-15T11:46:39.245Z,24.41
2017-07-15T11:49:24.372Z,24.38
2017-07-15T11:52:19.193Z,24.30
2017-07-15T11:55:14.272Z,24.20
2017-07-15T11:58:09.381Z,24.10
2017-07-15T12:02:12.389Z,23.96
2017-07-15T12:06:05.951Z,23.91
2017-07-15T12:08:51.603Z,23.90
2017-07-15T12:13:16.858Z,23.85
2017-07-15T12:23:11.483Z,24.12
2017-07-15T12:28:49.906Z,24.16
2017-07-15T12:31:44.650Z,24.05
2017-07-15T12:34:39.686Z,23.91
2017-07-15T12:37:34.817Z,23.78
2017-07-15T12:40:30.102Z,23.64
2017-07-15T12:43:25.365Z,23.53
2017-07-15T12:46:54.543Z,23.43
2017-07-15T12:49:41.856Z,23.37
2017-07-15T12:53:22.084Z,23.29
2017-07-15T12:56:08.612Z,23.27
2017-07-15T12:59:03.739Z,23.25
2017-07-15T13:02:32.730Z,23.22
2017-07-15T13:05:53.877Z,23.20
2017-07-15T13:08:41.041Z,23.21
2017-07-15T13:11:36.051Z,23.19
2017-07-15T13:17:26.394Z,23.13
2017-07-15T13:20:21.454Z,23.09
2017-07-15T13:23:16.807Z,23.06
2017-07-15T13:26:11.937Z,23.03
2017-07-15T13:29:07.110Z,23.01
2017-07-15T13:35:48.188Z,23.03
2017-07-15T13:39:40.406Z,23.18
2017-07-15T13:42:59.701Z,23.23
2017-07-15T13:46:20.529Z,23.24
2017-07-15T13:49:07.715Z,23.23
2017-07-15T13:52:02.328Z,23.20
2017-07-15T13:54:57.472Z,23.15
2017-07-15T13:59:34.343Z,23.08
2017-07-15T14:03:04.736Z,23.13
2017-07-15T14:05:50.994Z,23.15
2017-07-15T14:08:45.828Z,23.12
2017-07-15T14:11:40.878Z,23.06
2017-07-15T14:14:36.151Z,22.99
2017-07-15T14:17:42.672Z,22.92
2017-07-15T14:22:26.027Z,22.86
2017-07-15T14:25:11.046Z,22.92
2017-07-15T14:29:02.299Z,22.93
2017-07-15T14:32:33.487Z,22.95
2017-07-15T14:35:19.878Z,22.98
2017-07-15T14:38:14.643Z,22.97
2017-07-15T14:41:09.764Z,22.93
2017-07-15T14:45:35.382Z,22.89
2017-07-15T14:48:20.695Z,22.92
2017-07-15T14:51:15.511Z,22.92
2017-07-15T14:54:10.831Z,22.91
2017-07-15T14:59:44.212Z,22.88
2017-07-15T15:02:40.214Z,22.97
2017-07-15T15:05:30.182Z,22.98
2017-07-15T15:08:25.174Z,22.95
2017-07-15T15:11:20.335Z,22.90
2017-07-15T15:15:11.998Z,22.83
2017-07-15T15:17:58.083Z,22.84
2017-07-15T15:27:17.206Z,23.01
2017-07-15T15:31:20.402Z,23.15
2017-07-15T15:37:33.773Z,23.13
2017-07-15T15:40:20.947Z,23.09
2017-07-15T15:44:57.390Z,22.99
2017-07-15T15:51:39.971Z,23.04
2017-07-15T16:00:20.445Z,23.14
2017-07-15T16:21:25.073Z,23.35
2017-07-15T16:24:14.552Z,23.24
2017-07-15T16:27:09.163Z,23.08
2017-07-15T16:31:23.195Z,22.85
2017-07-15T16:35:38.965Z,22.73
2017-07-15T16:41:18.740Z,22.60
